sensor_id;sensor_type;location;lat;lon;timestamp;P1;durP1;ratioP1;P2;durP2;ratioP2
51852;SDS011;37894;53.172;6.598;2024-03-22T00:00:15;32.92;;;19.67;;
51852;SDS011;37894;53.172;6.598;2024-03-22T00:02:41;32.47;;;20.50;;
51852;SDS011;37894;53.172;6.598;2024-03-22T00:05:06;32.60;;;20.33;;
51852;SDS011;37894;53.172;6.598;2024-03-22T00:07:32;34.92;;;21.80;;
51852;SDS011;37894;53.172;6.598;2024-03-22T00:09:58;32.95;;;20.95;;
51852;SDS011;37894;53.172;6.598;2024-03-22T00:12:23;33.85;;;20.35;;
51852;SDS011;37894;53.172;6.598;2024-03-22T00:14:50;31.70;;;20.63;;
51852;SDS011;37894;53.172;6.598;2024-03-22T00:17:19;33.42;;;21.42;;
51852;SDS011;37894;53.172;6.598;2024-03-22T00:19:45;33.97;;;21.10;;
51852;SDS011;37894;53.172;6.598;2024-03-22T00:22:11;33.85;;;20.60;;
51852;SDS011;37894;53.172;6.598;2024-03-22T00:24:37;35.20;;;21.38;;
51852;SDS011;37894;53.172;6.598;2024-03-22T00:27:02;39.38;;;22.90;;
51852;SDS011;37894;53.172;6.598;2024-03-22T00:29:28;34.47;;;21.27;;
51852;SDS011;37894;53.172;6.598;2024-03-22T00:31:54;38.80;;;23.40;;
51852;SDS011;37894;53.172;6.598;2024-03-22T00:34:20;38.20;;;22.92;;
51852;SDS011;37894;53.172;6.598;2024-03-22T00:36:46;35.45;;;23.45;;
51852;SDS011;37894;53.172;6.598;2024-03-22T00:39:11;38.72;;;23.88;;
51852;SDS011;37894;53.172;6.598;2024-03-22T00:41:39;36.15;;;21.95;;
51852;SDS011;37894;53.172;6.598;2024-03-22T00:44:05;37.20;;;23.42;;
51852;SDS011;37894;53.172;6.598;2024-03-22T00:46:30;38.53;;;23.88;;
51852;SDS011;37894;53.172;6.598;2024-03-22T00:48:56;41.83;;;23.92;;
51852;SDS011;37894;53.172;6.598;2024-03-22T00:51:25;40.75;;;23.55;;
51852;SDS011;37894;53.172;6.598;2024-03-22T00:53:51;38.35;;;24.02;;
51852;SDS011;37894;53.172;6.598;2024-03-22T00:56:17;42.38;;;23.27;;
51852;SDS011;37894;53.172;6.598;2024-03-22T00:58:43;41.42;;;23.88;;
51852;SDS011;37894;53.172;6.598;2024-03-22T01:01:08;42.05;;;24.80;;
51852;SDS011;37894;53.172;6.598;2024-03-22T01:03:34;42.42;;;25.02;;
51852;SDS011;37894;53.172;6.598;2024-03-22T01:06:01;40.78;;;24.63;;
51852;SDS011;37894;53.172;6.598;2024-03-22T01:08:27;42.72;;;26.25;;
51852;SDS011;37894;53.172;6.598;2024-03-22T01:10:53;45.05;;;26.58;;
51852;SDS011;37894;53.172;6.598;2024-03-22T01:13:19;41.38;;;25.00;;
51852;SDS011;37894;53.172;6.598;2024-03-22T01:15:44;41.70;;;24.95;;
51852;SDS011;37894;53.172;6.598;2024-03-22T01:18:11;45.42;;;26.95;;
51852;SDS011;37894;53.172;6.598;2024-03-22T01:20:37;46.15;;;27.40;;
51852;SDS011;37894;53.172;6.598;2024-03-22T01:23:03;45.72;;;26.50;;
51852;SDS011;37894;53.172;6.598;2024-03-22T01:25:29;45.95;;;25.63;;
51852;SDS011;37894;53.172;6.598;2024-03-22T01:27:55;49.78;;;28.45;;
51852;SDS011;37894;53.172;6.598;2024-03-22T01:30:21;46.58;;;27.08;;
51852;SDS011;37894;53.172;6.598;2024-03-22T01:32:47;42.75;;;25.40;;
51852;SDS011;37894;53.172;6.598;2024-03-22T01:35:13;50.70;;;29.05;;
51852;SDS011;37894;53.172;6.598;2024-03-22T01:37:39;47.58;;;27.90;;
51852;SDS011;37894;53.172;6.598;2024-03-22T01:40:05;48.97;;;27.55;;
51852;SDS011;37894;53.172;6.598;2024-03-22T01:42:33;52.15;;;28.30;;
51852;SDS011;37894;53.172;6.598;2024-03-22T01:44:58;51.10;;;27.73;;
51852;SDS011;37894;53.172;6.598;2024-03-22T01:47:24;46.65;;;26.85;;
51852;SDS011;37894;53.172;6.598;2024-03-22T01:49:50;47.80;;;27.52;;
51852;SDS011;37894;53.172;6.598;2024-03-22T01:52:17;49.17;;;29.98;;
51852;SDS011;37894;53.172;6.598;2024-03-22T01:54:43;55.15;;;29.98;;
51852;SDS011;37894;53.172;6.598;2024-03-22T01:57:09;50.80;;;29.13;;
51852;SDS011;37894;53.172;6.598;2024-03-22T01:59:35;54.10;;;29.92;;
51852;SDS011;37894;53.172;6.598;2024-03-22T02:02:01;50.15;;;28.98;;
51852;SDS011;37894;53.172;6.598;2024-03-22T02:04:27;47.83;;;29.10;;
51852;SDS011;37894;53.172;6.598;2024-03-22T02:06:53;52.28;;;29.00;;
51852;SDS011;37894;53.172;6.598;2024-03-22T02:09:18;56.10;;;30.10;;
51852;SDS011;37894;53.172;6.598;2024-03-22T02:11:46;56.95;;;29.80;;
51852;SDS011;37894;53.172;6.598;2024-03-22T02:14:12;49.72;;;29.67;;
51852;SDS011;37894;53.172;6.598;2024-03-22T02:16:39;56.08;;;29.80;;
51852;SDS011;37894;53.172;6.598;2024-03-22T02:19:06;51.17;;;28.23;;
51852;SDS011;37894;53.172;6.598;2024-03-22T02:21:32;55.60;;;30.70;;
51852;SDS011;37894;53.172;6.598;2024-03-22T02:23:57;57.90;;;31.02;;
51852;SDS011;37894;53.172;6.598;2024-03-22T02:26:23;57.92;;;30.15;;
51852;SDS011;37894;53.172;6.598;2024-03-22T02:28:49;58.42;;;30.35;;
51852;SDS011;37894;53.172;6.598;2024-03-22T02:31:15;56.90;;;30.20;;
51852;SDS011;37894;53.172;6.598;2024-03-22T02:33:40;55.80;;;30.85;;
51852;SDS011;37894;53.172;6.598;2024-03-22T02:36:06;53.80;;;31.17;;
51852;SDS011;37894;53.172;6.598;2024-03-22T02:38:32;57.45;;;31.63;;
51852;SDS011;37894;53.172;6.598;2024-03-22T02:40:58;63.03;;;32.03;;
51852;SDS011;37894;53.172;6.598;2024-03-22T02:43:24;58.30;;;32.10;;
51852;SDS011;37894;53.172;6.598;2024-03-22T02:45:50;58.70;;;32.35;;
51852;SDS011;37894;53.172;6.598;2024-03-22T02:48:16;59.72;;;33.08;;
51852;SDS011;37894;53.172;6.598;2024-03-22T02:50:41;61.95;;;33.15;;
51852;SDS011;37894;53.172;6.598;2024-03-22T02:53:07;59.05;;;32.92;;
51852;SDS011;37894;53.172;6.598;2024-03-22T02:55:37;57.25;;;31.30;;
51852;SDS011;37894;53.172;6.598;2024-03-22T02:58:03;70.15;;;33.97;;
51852;SDS011;37894;53.172;6.598;2024-03-22T03:00:30;62.15;;;32.40;;
51852;SDS011;37894;53.172;6.598;2024-03-22T03:02:56;62.72;;;32.67;;
51852;SDS011;37894;53.172;6.598;2024-03-22T03:05:22;63.30;;;33.90;;
51852;SDS011;37894;53.172;6.598;2024-03-22T03:07:48;68.40;;;33.85;;
51852;SDS011;37894;53.172;6.598;2024-03-22T03:10:15;68.57;;;34.30;;
51852;SDS011;37894;53.172;6.598;2024-03-22T03:12:41;70.22;;;34.40;;
51852;SDS011;37894;53.172;6.598;2024-03-22T03:15:07;72.90;;;34.67;;
51852;SDS011;37894;53.172;6.598;2024-03-22T03:17:33;67.40;;;34.95;;
51852;SDS011;37894;53.172;6.598;2024-03-22T03:19:59;70.25;;;35.70;;
51852;SDS011;37894;53.172;6.598;2024-03-22T03:22:25;72.00;;;35.60;;
51852;SDS011;37894;53.172;6.598;2024-03-22T03:24:50;68.90;;;35.78;;
51852;SDS011;37894;53.172;6.598;2024-03-22T03:27:16;70.53;;;33.83;;
51852;SDS011;37894;53.172;6.598;2024-03-22T03:29:42;79.22;;;36.28;;
51852;SDS011;37894;53.172;6.598;2024-03-22T03:32:07;68.78;;;32.88;;
51852;SDS011;37894;53.172;6.598;2024-03-22T03:34:33;74.82;;;35.70;;
51852;SDS011;37894;53.172;6.598;2024-03-22T03:36:59;70.13;;;34.95;;
51852;SDS011;37894;53.172;6.598;2024-03-22T03:39:26;77.85;;;36.20;;
51852;SDS011;37894;53.172;6.598;2024-03-22T03:41:54;77.45;;;34.75;;
51852;SDS011;37894;53.172;6.598;2024-03-22T03:44:20;84.20;;;36.95;;
51852;SDS011;37894;53.172;6.598;2024-03-22T03:46:46;75.97;;;34.20;;
51852;SDS011;37894;53.172;6.598;2024-03-22T03:49:11;71.63;;;35.55;;
51852;SDS011;37894;53.172;6.598;2024-03-22T03:51:37;76.63;;;36.20;;
51852;SDS011;37894;53.172;6.598;2024-03-22T03:54:03;72.13;;;34.47;;
51852;SDS011;37894;53.172;6.598;2024-03-22T03:56:29;81.72;;;36.72;;
51852;SDS011;37894;53.172;6.598;2024-03-22T03:58:55;67.13;;;37.13;;
51852;SDS011;37894;53.172;6.598;2024-03-22T04:01:21;78.20;;;35.35;;
51852;SDS011;37894;53.172;6.598;2024-03-22T04:03:48;76.70;;;35.58;;
51852;SDS011;37894;53.172;6.598;2024-03-22T04:06:14;69.65;;;31.85;;
51852;SDS011;37894;53.172;6.598;2024-03-22T04:08:39;70.88;;;34.92;;
51852;SDS011;37894;53.172;6.598;2024-03-22T04:11:05;74.95;;;34.88;;
51852;SDS011;37894;53.172;6.598;2024-03-22T04:13:31;76.28;;;35.33;;
51852;SDS011;37894;53.172;6.598;2024-03-22T04:15:58;76.10;;;35.10;;
51852;SDS011;37894;53.172;6.598;2024-03-22T04:18:25;73.07;;;34.97;;
51852;SDS011;37894;53.172;6.598;2024-03-22T04:20:57;72.00;;;33.13;;
51852;SDS011;37894;53.172;6.598;2024-03-22T04:23:26;67.47;;;31.98;;
51852;SDS011;37894;53.172;6.598;2024-03-22T04:25:56;77.85;;;33.45;;
51852;SDS011;37894;53.172;6.598;2024-03-22T04:28:29;72.90;;;34.28;;
51852;SDS011;37894;53.172;6.598;2024-03-22T04:31:07;71.57;;;32.92;;
51852;SDS011;37894;53.172;6.598;2024-03-22T04:33:34;69.20;;;32.80;;
51852;SDS011;37894;53.172;6.598;2024-03-22T04:36:01;66.95;;;33.13;;
51852;SDS011;37894;53.172;6.598;2024-03-22T04:38:27;68.28;;;33.88;;
51852;SDS011;37894;53.172;6.598;2024-03-22T04:40:54;67.85;;;33.20;;
51852;SDS011;37894;53.172;6.598;2024-03-22T04:43:21;67.93;;;33.58;;
51852;SDS011;37894;53.172;6.598;2024-03-22T04:45:49;70.65;;;34.35;;
51852;SDS011;37894;53.172;6.598;2024-03-22T04:48:22;67.72;;;33.10;;
51852;SDS011;37894;53.172;6.598;2024-03-22T04:50:51;67.10;;;31.65;;
51852;SDS011;37894;53.172;6.598;2024-03-22T04:53:18;64.85;;;31.92;;
51852;SDS011;37894;53.172;6.598;2024-03-22T04:55:48;61.72;;;29.15;;
51852;SDS011;37894;53.172;6.598;2024-03-22T04:58:15;63.95;;;30.83;;
51852;SDS011;37894;53.172;6.598;2024-03-22T05:00:42;64.88;;;32.28;;
51852;SDS011;37894;53.172;6.598;2024-03-22T05:03:08;67.63;;;30.58;;
51852;SDS011;37894;53.172;6.598;2024-03-22T05:05:34;65.07;;;32.70;;
51852;SDS011;37894;53.172;6.598;2024-03-22T05:08:00;64.72;;;31.30;;
51852;SDS011;37894;53.172;6.598;2024-03-22T05:10:27;64.10;;;30.75;;
51852;SDS011;37894;53.172;6.598;2024-03-22T05:12:54;63.95;;;30.10;;
51852;SDS011;37894;53.172;6.598;2024-03-22T05:15:20;65.82;;;30.42;;
51852;SDS011;37894;53.172;6.598;2024-03-22T05:17:46;56.80;;;29.27;;
51852;SDS011;37894;53.172;6.598;2024-03-22T05:20:12;65.82;;;30.90;;
51852;SDS011;37894;53.172;6.598;2024-03-22T05:22:38;62.55;;;29.90;;
51852;SDS011;37894;53.172;6.598;2024-03-22T05:25:03;56.28;;;29.20;;
51852;SDS011;37894;53.172;6.598;2024-03-22T05:27:31;60.78;;;29.35;;
51852;SDS011;37894;53.172;6.598;2024-03-22T05:29:57;57.40;;;28.95;;
51852;SDS011;37894;53.172;6.598;2024-03-22T05:32:24;53.22;;;28.13;;
51852;SDS011;37894;53.172;6.598;2024-03-22T05:34:50;57.53;;;29.27;;
51852;SDS011;37894;53.172;6.598;2024-03-22T05:37:16;58.60;;;27.92;;
51852;SDS011;37894;53.172;6.598;2024-03-22T05:39:42;63.95;;;29.95;;
51852;SDS011;37894;53.172;6.598;2024-03-22T05:42:07;57.75;;;28.40;;
51852;SDS011;37894;53.172;6.598;2024-03-22T05:44:33;65.22;;;28.67;;
51852;SDS011;37894;53.172;6.598;2024-03-22T05:47:02;63.45;;;28.98;;
51852;SDS011;37894;53.172;6.598;2024-03-22T05:49:28;68.70;;;29.13;;
51852;SDS011;37894;53.172;6.598;2024-03-22T05:51:54;67.30;;;29.25;;
51852;SDS011;37894;53.172;6.598;2024-03-22T05:54:20;65.60;;;29.48;;
51852;SDS011;37894;53.172;6.598;2024-03-22T05:56:46;62.88;;;28.00;;
51852;SDS011;37894;53.172;6.598;2024-03-22T05:59:12;61.75;;;27.38;;
51852;SDS011;37894;53.172;6.598;2024-03-22T06:01:37;64.88;;;26.40;;
51852;SDS011;37894;53.172;6.598;2024-03-22T06:04:04;58.65;;;27.25;;
51852;SDS011;37894;53.172;6.598;2024-03-22T06:06:31;62.20;;;27.80;;
51852;SDS011;37894;53.172;6.598;2024-03-22T06:08:58;64.22;;;27.73;;
51852;SDS011;37894;53.172;6.598;2024-03-22T06:11:25;60.65;;;26.70;;
51852;SDS011;37894;53.172;6.598;2024-03-22T06:13:51;68.97;;;26.80;;
51852;SDS011;37894;53.172;6.598;2024-03-22T06:16:17;61.00;;;26.88;;
51852;SDS011;37894;53.172;6.598;2024-03-22T06:18:42;55.25;;;25.33;;
51852;SDS011;37894;53.172;6.598;2024-03-22T06:21:08;55.63;;;24.23;;
51852;SDS011;37894;53.172;6.598;2024-03-22T06:23:34;56.10;;;25.88;;
51852;SDS011;37894;53.172;6.598;2024-03-22T06:26:00;55.30;;;24.65;;
51852;SDS011;37894;53.172;6.598;2024-03-22T06:28:27;55.97;;;24.98;;
51852;SDS011;37894;53.172;6.598;2024-03-22T06:30:53;58.95;;;25.30;;
51852;SDS011;37894;53.172;6.598;2024-03-22T06:33:19;57.83;;;24.30;;
51852;SDS011;37894;53.172;6.598;2024-03-22T06:35:45;60.13;;;24.33;;
51852;SDS011;37894;53.172;6.598;2024-03-22T06:38:11;55.53;;;23.75;;
51852;SDS011;37894;53.172;6.598;2024-03-22T06:40:37;54.75;;;26.13;;
51852;SDS011;37894;53.172;6.598;2024-03-22T06:43:03;63.28;;;26.23;;
51852;SDS011;37894;53.172;6.598;2024-03-22T06:45:29;55.80;;;24.08;;
51852;SDS011;37894;53.172;6.598;2024-03-22T06:47:55;60.13;;;24.48;;
51852;SDS011;37894;53.172;6.598;2024-03-22T06:50:20;59.70;;;24.45;;
51852;SDS011;37894;53.172;6.598;2024-03-22T06:52:52;53.05;;;23.52;;
51852;SDS011;37894;53.172;6.598;2024-03-22T06:55:21;54.13;;;23.30;;
51852;SDS011;37894;53.172;6.598;2024-03-22T06:57:48;54.75;;;23.98;;
51852;SDS011;37894;53.172;6.598;2024-03-22T07:00:14;56.90;;;22.17;;
51852;SDS011;37894;53.172;6.598;2024-03-22T07:02:40;53.75;;;23.65;;
51852;SDS011;37894;53.172;6.598;2024-03-22T07:05:07;57.47;;;23.25;;
51852;SDS011;37894;53.172;6.598;2024-03-22T07:07:33;48.33;;;22.05;;
51852;SDS011;37894;53.172;6.598;2024-03-22T07:09:59;55.72;;;22.73;;
51852;SDS011;37894;53.172;6.598;2024-03-22T07:12:25;46.78;;;20.98;;
51852;SDS011;37894;53.172;6.598;2024-03-22T07:14:51;47.40;;;20.98;;
51852;SDS011;37894;53.172;6.598;2024-03-22T07:17:17;56.92;;;21.35;;
51852;SDS011;37894;53.172;6.598;2024-03-22T07:19:48;47.55;;;21.30;;
51852;SDS011;37894;53.172;6.598;2024-03-22T07:22:14;49.78;;;19.88;;
51852;SDS011;37894;53.172;6.598;2024-03-22T07:24:41;46.67;;;20.42;;
51852;SDS011;37894;53.172;6.598;2024-03-22T07:27:07;42.80;;;18.98;;
51852;SDS011;37894;53.172;6.598;2024-03-22T07:29:33;42.65;;;19.15;;
51852;SDS011;37894;53.172;6.598;2024-03-22T07:31:59;48.47;;;19.77;;
51852;SDS011;37894;53.172;6.598;2024-03-22T07:34:25;40.70;;;18.63;;
51852;SDS011;37894;53.172;6.598;2024-03-22T07:36:51;38.70;;;18.88;;
51852;SDS011;37894;53.172;6.598;2024-03-22T07:39:18;43.60;;;18.27;;
51852;SDS011;37894;53.172;6.598;2024-03-22T07:41:44;52.80;;;18.50;;
51852;SDS011;37894;53.172;6.598;2024-03-22T07:44:10;42.72;;;18.27;;
51852;SDS011;37894;53.172;6.598;2024-03-22T07:46:36;38.35;;;17.77;;
51852;SDS011;37894;53.172;6.598;2024-03-22T07:49:02;42.63;;;19.00;;
51852;SDS011;37894;53.172;6.598;2024-03-22T07:51:29;44.17;;;18.65;;
51852;SDS011;37894;53.172;6.598;2024-03-22T07:53:55;37.40;;;17.88;;
51852;SDS011;37894;53.172;6.598;2024-03-22T07:56:21;39.83;;;18.63;;
51852;SDS011;37894;53.172;6.598;2024-03-22T07:58:47;45.25;;;17.27;;
51852;SDS011;37894;53.172;6.598;2024-03-22T08:01:13;39.58;;;17.73;;
51852;SDS011;37894;53.172;6.598;2024-03-22T08:03:42;38.35;;;17.50;;
51852;SDS011;37894;53.172;6.598;2024-03-22T08:06:08;47.65;;;17.67;;
51852;SDS011;37894;53.172;6.598;2024-03-22T08:08:34;41.38;;;20.00;;
51852;SDS011;37894;53.172;6.598;2024-03-22T08:11:00;41.53;;;17.05;;
51852;SDS011;37894;53.172;6.598;2024-03-22T08:13:26;39.10;;;17.38;;
51852;SDS011;37894;53.172;6.598;2024-03-22T08:15:52;38.45;;;17.33;;
51852;SDS011;37894;53.172;6.598;2024-03-22T08:18:18;42.38;;;17.30;;
51852;SDS011;37894;53.172;6.598;2024-03-22T08:20:45;48.17;;;18.00;;
51852;SDS011;37894;53.172;6.598;2024-03-22T08:23:11;44.13;;;17.50;;
51852;SDS011;37894;53.172;6.598;2024-03-22T08:25:37;41.75;;;18.90;;
51852;SDS011;37894;53.172;6.598;2024-03-22T08:28:03;41.70;;;16.63;;
51852;SDS011;37894;53.172;6.598;2024-03-22T08:30:29;45.88;;;19.10;;
51852;SDS011;37894;53.172;6.598;2024-03-22T08:32:55;36.10;;;16.10;;
51852;SDS011;37894;53.172;6.598;2024-03-22T08:35:21;44.33;;;18.35;;
51852;SDS011;37894;53.172;6.598;2024-03-22T08:37:48;41.22;;;17.20;;
51852;SDS011;37894;53.172;6.598;2024-03-22T08:40:14;42.70;;;17.13;;
51852;SDS011;37894;53.172;6.598;2024-03-22T08:42:40;36.75;;;15.98;;
51852;SDS011;37894;53.172;6.598;2024-03-22T08:45:07;36.47;;;15.45;;
51852;SDS011;37894;53.172;6.598;2024-03-22T08:47:33;33.95;;;14.30;;
51852;SDS011;37894;53.172;6.598;2024-03-22T08:49:59;31.52;;;13.60;;
51852;SDS011;37894;53.172;6.598;2024-03-22T08:52:25;28.98;;;13.77;;
51852;SDS011;37894;53.172;6.598;2024-03-22T08:54:52;27.27;;;12.68;;
51852;SDS011;37894;53.172;6.598;2024-03-22T08:57:18;26.55;;;13.00;;
51852;SDS011;37894;53.172;6.598;2024-03-22T08:59:44;23.02;;;10.55;;
51852;SDS011;37894;53.172;6.598;2024-03-22T09:02:10;19.60;;;10.48;;
51852;SDS011;37894;53.172;6.598;2024-03-22T09:04:37;17.95;;;9.88;;
51852;SDS011;37894;53.172;6.598;2024-03-22T09:07:03;20.48;;;9.77;;
51852;SDS011;37894;53.172;6.598;2024-03-22T09:09:29;19.02;;;9.25;;
51852;SDS011;37894;53.172;6.598;2024-03-22T09:11:55;17.50;;;9.23;;
51852;SDS011;37894;53.172;6.598;2024-03-22T09:14:21;19.05;;;9.00;;
51852;SDS011;37894;53.172;6.598;2024-03-22T09:16:47;16.00;;;8.65;;
51852;SDS011;37894;53.172;6.598;2024-03-22T09:19:13;17.83;;;8.90;;
51852;SDS011;37894;53.172;6.598;2024-03-22T09:21:38;16.90;;;8.57;;
51852;SDS011;37894;53.172;6.598;2024-03-22T09:24:05;20.15;;;8.13;;
51852;SDS011;37894;53.172;6.598;2024-03-22T09:26:32;15.70;;;8.27;;
51852;SDS011;37894;53.172;6.598;2024-03-22T09:28:59;14.88;;;7.85;;
51852;SDS011;37894;53.172;6.598;2024-03-22T09:31:25;16.10;;;7.95;;
51852;SDS011;37894;53.172;6.598;2024-03-22T09:33:51;15.45;;;7.68;;
51852;SDS011;37894;53.172;6.598;2024-03-22T09:36:17;14.82;;;7.90;;
51852;SDS011;37894;53.172;6.598;2024-03-22T09:38:43;14.65;;;7.72;;
51852;SDS011;37894;53.172;6.598;2024-03-22T09:41:09;14.65;;;7.75;;
51852;SDS011;37894;53.172;6.598;2024-03-22T09:43:35;15.85;;;7.75;;
51852;SDS011;37894;53.172;6.598;2024-03-22T09:46:03;12.65;;;7.93;;
51852;SDS011;37894;53.172;6.598;2024-03-22T09:48:30;15.02;;;7.85;;
51852;SDS011;37894;53.172;6.598;2024-03-22T09:50:58;14.57;;;7.90;;
51852;SDS011;37894;53.172;6.598;2024-03-22T09:53:24;14.23;;;7.53;;
51852;SDS011;37894;53.172;6.598;2024-03-22T09:55:52;13.05;;;7.80;;
51852;SDS011;37894;53.172;6.598;2024-03-22T09:58:22;16.63;;;7.28;;
51852;SDS011;37894;53.172;6.598;2024-03-22T10:00:49;15.95;;;7.15;;
51852;SDS011;37894;53.172;6.598;2024-03-22T10:03:15;13.48;;;7.15;;
51852;SDS011;37894;53.172;6.598;2024-03-22T10:05:41;14.80;;;7.50;;
51852;SDS011;37894;53.172;6.598;2024-03-22T10:08:07;12.82;;;7.03;;
51852;SDS011;37894;53.172;6.598;2024-03-22T10:10:34;14.43;;;7.40;;
51852;SDS011;37894;53.172;6.598;2024-03-22T10:13:00;14.18;;;7.38;;
51852;SDS011;37894;53.172;6.598;2024-03-22T10:15:26;17.08;;;7.63;;
51852;SDS011;37894;53.172;6.598;2024-03-22T10:17:53;12.00;;;6.90;;
51852;SDS011;37894;53.172;6.598;2024-03-22T10:20:21;13.45;;;6.50;;
51852;SDS011;37894;53.172;6.598;2024-03-22T10:25:23;14.68;;;6.70;;
51852;SDS011;37894;53.172;6.598;2024-03-22T10:27:50;10.52;;;6.22;;
51852;SDS011;37894;53.172;6.598;2024-03-22T10:30:16;12.10;;;6.53;;
51852;SDS011;37894;53.172;6.598;2024-03-22T10:32:43;12.63;;;6.28;;
51852;SDS011;37894;53.172;6.598;2024-03-22T10:35:11;12.23;;;5.75;;
51852;SDS011;37894;53.172;6.598;2024-03-22T10:37:38;11.43;;;6.03;;
51852;SDS011;37894;53.172;6.598;2024-03-22T10:40:04;10.93;;;5.40;;
51852;SDS011;37894;53.172;6.598;2024-03-22T10:42:38;11.38;;;5.88;;
51852;SDS011;37894;53.172;6.598;2024-03-22T10:45:05;9.55;;;5.43;;
51852;SDS011;37894;53.172;6.598;2024-03-22T10:47:33;8.90;;;4.72;;
51852;SDS011;37894;53.172;6.598;2024-03-22T10:52:54;9.18;;;4.40;;
51852;SDS011;37894;53.172;6.598;2024-03-22T10:55:29;7.50;;;4.15;;
51852;SDS011;37894;53.172;6.598;2024-03-22T10:57:58;7.95;;;4.40;;
51852;SDS011;37894;53.172;6.598;2024-03-22T11:00:28;9.75;;;4.25;;
51852;SDS011;37894;53.172;6.598;2024-03-22T11:02:57;6.90;;;4.20;;
51852;SDS011;37894;53.172;6.598;2024-03-22T11:05:23;7.68;;;4.18;;
51852;SDS011;37894;53.172;6.598;2024-03-22T11:08:03;8.15;;;4.18;;
51852;SDS011;37894;53.172;6.598;2024-03-22T11:10:30;9.40;;;4.63;;
51852;SDS011;37894;53.172;6.598;2024-03-22T11:13:00;7.82;;;4.47;;
51852;SDS011;37894;53.172;6.598;2024-03-22T11:15:30;6.63;;;4.20;;
51852;SDS011;37894;53.172;6.598;2024-03-22T11:17:57;7.97;;;4.72;;
51852;SDS011;37894;53.172;6.598;2024-03-22T11:20:23;7.05;;;3.78;;
51852;SDS011;37894;53.172;6.598;2024-03-22T11:22:49;5.25;;;3.00;;
51852;SDS011;37894;53.172;6.598;2024-03-22T11:25:16;6.68;;;3.40;;
51852;SDS011;37894;53.172;6.598;2024-03-22T11:27:43;5.20;;;3.13;;
51852;SDS011;37894;53.172;6.598;2024-03-22T11:30:08;7.07;;;3.72;;
51852;SDS011;37894;53.172;6.598;2024-03-22T11:32:34;6.07;;;3.47;;
51852;SDS011;37894;53.172;6.598;2024-03-22T11:35:09;4.38;;;2.30;;
51852;SDS011;37894;53.172;6.598;2024-03-22T11:37:35;5.95;;;2.67;;
51852;SDS011;37894;53.172;6.598;2024-03-22T11:40:01;5.35;;;3.25;;
51852;SDS011;37894;53.172;6.598;2024-03-22T11:42:31;5.13;;;3.15;;
51852;SDS011;37894;53.172;6.598;2024-03-22T11:45:00;6.00;;;3.22;;
51852;SDS011;37894;53.172;6.598;2024-03-22T11:47:27;3.85;;;2.05;;
51852;SDS011;37894;53.172;6.598;2024-03-22T11:49:53;3.50;;;2.00;;
51852;SDS011;37894;53.172;6.598;2024-03-22T11:52:27;5.43;;;2.10;;
51852;SDS011;37894;53.172;6.598;2024-03-22T11:54:53;3.70;;;2.05;;
51852;SDS011;37894;53.172;6.598;2024-03-22T11:57:22;4.35;;;1.85;;
51852;SDS011;37894;53.172;6.598;2024-03-22T11:59:49;4.07;;;2.08;;
51852;SDS011;37894;53.172;6.598;2024-03-22T12:02:15;8.43;;;1.88;;
51852;SDS011;37894;53.172;6.598;2024-03-22T12:04:42;4.15;;;1.80;;
51852;SDS011;37894;53.172;6.598;2024-03-22T12:07:13;6.38;;;2.28;;
51852;SDS011;37894;53.172;6.598;2024-03-22T12:09:40;3.30;;;1.77;;
51852;SDS011;37894;53.172;6.598;2024-03-22T12:12:08;4.57;;;1.85;;
51852;SDS011;37894;53.172;6.598;2024-03-22T12:14:35;4.20;;;1.90;;
51852;SDS011;37894;53.172;6.598;2024-03-22T12:17:04;4.13;;;2.08;;
51852;SDS011;37894;53.172;6.598;2024-03-22T12:19:33;6.35;;;2.22;;
51852;SDS011;37894;53.172;6.598;2024-03-22T12:21:59;5.88;;;2.40;;
51852;SDS011;37894;53.172;6.598;2024-03-22T12:24:26;6.60;;;2.80;;
51852;SDS011;37894;53.172;6.598;2024-03-22T12:26:52;5.35;;;2.72;;
51852;SDS011;37894;53.172;6.598;2024-03-22T12:29:18;6.57;;;2.90;;
51852;SDS011;37894;53.172;6.598;2024-03-22T12:31:44;7.10;;;2.97;;
51852;SDS011;37894;53.172;6.598;2024-03-22T12:34:10;7.53;;;3.65;;
51852;SDS011;37894;53.172;6.598;2024-03-22T12:36:37;8.07;;;3.90;;
51852;SDS011;37894;53.172;6.598;2024-03-22T12:39:03;9.32;;;3.50;;
51852;SDS011;37894;53.172;6.598;2024-03-22T12:41:29;9.95;;;3.47;;
51852;SDS011;37894;53.172;6.598;2024-03-22T12:43:55;8.93;;;3.80;;
51852;SDS011;37894;53.172;6.598;2024-03-22T12:46:21;10.07;;;4.60;;
51852;SDS011;37894;53.172;6.598;2024-03-22T12:48:47;7.22;;;4.18;;
51852;SDS011;37894;53.172;6.598;2024-03-22T12:51:13;9.20;;;4.05;;
51852;SDS011;37894;53.172;6.598;2024-03-22T12:53:39;9.18;;;4.50;;
51852;SDS011;37894;53.172;6.598;2024-03-22T12:56:05;8.93;;;4.30;;
51852;SDS011;37894;53.172;6.598;2024-03-22T12:58:31;9.35;;;4.22;;
51852;SDS011;37894;53.172;6.598;2024-03-22T13:00:57;8.73;;;3.45;;
51852;SDS011;37894;53.172;6.598;2024-03-22T13:03:27;14.43;;;3.90;;
51852;SDS011;37894;53.172;6.598;2024-03-22T13:05:54;9.70;;;3.75;;
51852;SDS011;37894;53.172;6.598;2024-03-22T13:08:20;9.43;;;3.70;;
51852;SDS011;37894;53.172;6.598;2024-03-22T13:10:46;13.10;;;3.92;;
51852;SDS011;37894;53.172;6.598;2024-03-22T13:13:13;10.23;;;3.83;;
51852;SDS011;37894;53.172;6.598;2024-03-22T13:15:41;11.68;;;3.75;;
51852;SDS011;37894;53.172;6.598;2024-03-22T13:18:07;11.68;;;4.15;;
51852;SDS011;37894;53.172;6.598;2024-03-22T13:20:37;13.38;;;4.50;;
51852;SDS011;37894;53.172;6.598;2024-03-22T13:23:03;11.20;;;3.47;;
51852;SDS011;37894;53.172;6.598;2024-03-22T13:25:29;11.70;;;4.18;;
51852;SDS011;37894;53.172;6.598;2024-03-22T13:27:54;12.80;;;4.15;;
51852;SDS011;37894;53.172;6.598;2024-03-22T13:30:21;14.73;;;5.00;;
51852;SDS011;37894;53.172;6.598;2024-03-22T13:32:47;14.77;;;4.50;;
51852;SDS011;37894;53.172;6.598;2024-03-22T13:35:13;14.98;;;3.80;;
51852;SDS011;37894;53.172;6.598;2024-03-22T13:37:39;16.45;;;4.97;;
51852;SDS011;37894;53.172;6.598;2024-03-22T13:40:05;19.98;;;5.18;;
51852;SDS011;37894;53.172;6.598;2024-03-22T13:42:31;17.20;;;5.07;;
51852;SDS011;37894;53.172;6.598;2024-03-22T13:44:57;15.32;;;4.32;;
51852;SDS011;37894;53.172;6.598;2024-03-22T13:47:23;15.38;;;5.15;;
51852;SDS011;37894;53.172;6.598;2024-03-22T13:49:52;18.63;;;4.80;;
51852;SDS011;37894;53.172;6.598;2024-03-22T13:52:18;19.33;;;4.55;;
51852;SDS011;37894;53.172;6.598;2024-03-22T13:54:45;14.18;;;5.05;;
51852;SDS011;37894;53.172;6.598;2024-03-22T13:57:11;13.93;;;4.47;;
51852;SDS011;37894;53.172;6.598;2024-03-22T13:59:37;16.88;;;5.20;;
51852;SDS011;37894;53.172;6.598;2024-03-22T14:02:05;11.88;;;4.43;;
51852;SDS011;37894;53.172;6.598;2024-03-22T14:04:31;12.48;;;4.10;;
51852;SDS011;37894;53.172;6.598;2024-03-22T14:06:57;11.63;;;3.85;;
51852;SDS011;37894;53.172;6.598;2024-03-22T14:09:23;12.88;;;4.38;;
51852;SDS011;37894;53.172;6.598;2024-03-22T14:11:51;11.55;;;3.20;;
51852;SDS011;37894;53.172;6.598;2024-03-22T14:14:16;10.80;;;3.17;;
51852;SDS011;37894;53.172;6.598;2024-03-22T14:16:43;13.02;;;3.20;;
51852;SDS011;37894;53.172;6.598;2024-03-22T14:19:08;15.40;;;4.28;;
51852;SDS011;37894;53.172;6.598;2024-03-22T14:21:34;10.30;;;3.45;;
51852;SDS011;37894;53.172;6.598;2024-03-22T14:24:01;16.20;;;3.30;;
51852;SDS011;37894;53.172;6.598;2024-03-22T14:26:28;12.43;;;3.15;;
51852;SDS011;37894;53.172;6.598;2024-03-22T14:28:53;16.50;;;3.45;;